Audubon County Airport
Tuesday 8:35 AM
Weather N/A
Temperature 64°
Dew Point 57°
Feels Like 64°
Relative Humidity 77
%
Visibility 10
mi
Pressure 1019.0
mb
Wind Direction WSW
Wind Speed 5
mph
Last Hour Precip 0.00
"
KADU 281335Z AUTO 24004KT 10SM 18/14 A3009 RMK AO2 PWINO

Recent Observations

Time Present Weather Temp DP Feels RH% Vsby Pressure Ceiling Direction Speed Gust 1h Precip
8:35AM 64° 57° 64° 77
%
10
mi
1019.0
mb
WSW 5
mph
0.00"
KADU 281335Z AUTO 24004KT 10SM 18/14 A3009 RMK AO2 PWINO
8:15AM 63° 55° 63° 77
%
10
mi
1019.0
mb
None Calm 0.00"
KADU 281315Z AUTO 00000KT 10SM 17/13 A3009 RMK AO2 PWINO
7:55AM 61° 55° 61° 82
%
10
mi
1019.3
mb
WNW 3
mph
0.00"
KADU 281255Z AUTO 29003KT 10SM 16/13 A3010 RMK AO2 PWINO
7:35AM 57° 54° 57° 88
%
10
mi
1019.3
mb
None Calm 0.00"
KADU 281235Z AUTO 00000KT 10SM 14/12 A3010 RMK AO2 PWINO
7:15AM 55° 52° 55° 88
%
10
mi
1019.3
mb
None Calm 0.00"
KADU 281215Z AUTO 00000KT 10SM 13/11 A3010 RMK AO2 PWINO
6:55AM 52° 50° 52° 94
%
10
mi
1019.0
mb
None Calm 0.00"
KADU 281155Z AUTO 00000KT 10SM 11/10 A3009 RMK AO2 PWINO
6:35AM 50° 48° 50° 93
%
10
mi
1019.0
mb
None Calm 0.00"
KADU 281135Z AUTO 00000KT 10SM 10/09 A3009 RMK AO2 PWINO
6:15AM 48° 46° 48° 93
%
10
mi
1019.0
mb
None Calm 0.00"
KADU 281115Z AUTO 00000KT 10SM 09/08 A3009 RMK AO2 PWINO
5:55AM 48° 46° 48° 93
%
10
mi
1019.0
mb
None Calm 0.00"
KADU 281055Z AUTO 00000KT 10SM 09/08 A3009 RMK AO2 PWINO
5:35AM 48° 46° 48° 93
%
10
mi
1018.6
mb
None Calm 0.00"
KADU 281035Z AUTO 00000KT 10SM 09/08 A3008 RMK AO2 PWINO
5:15AM 50° 48° 50° 93
%
10
mi
1018.6
mb
None Calm 0.00"
KADU 281015Z AUTO 00000KT 10SM 10/09 A3008 RMK AO2 PWINO
4:55AM 50° 46° 50° 87
%
10
mi
1018.3
mb
None Calm 0.00"
KADU 280955Z AUTO 00000KT 10SM 10/08 A3007 RMK AO2 PWINO
4:35AM 52° 48° 52° 87
%
10
mi
1018.3
mb
None Calm 0.00"
KADU 280935Z AUTO 00000KT 10SM 11/09 A3007 RMK AO2 PWINO
4:15AM 52° 48° 52° 87
%
10
mi
1017.9
mb
None Calm 0.00"
KADU 280915Z AUTO 00000KT 10SM 11/09 A3006 RMK AO2 PWINO
3:55AM 52° 48° 52° 87
%
10
mi
1017.9
mb
None Calm 0.00"
KADU 280855Z AUTO 00000KT 10SM 11/09 A3006 RMK AO2 PWINO
3:35AM 52° 48° 52° 87
%
10
mi
1017.9
mb
None Calm 0.00"
KADU 280835Z AUTO 00000KT 10SM 11/09 A3006 RMK AO2 PWINO
3:15AM 54° 50° 54° 88
%
10
mi
1017.9
mb
None Calm 0.00"
KADU 280815Z AUTO 00000KT 10SM 12/10 A3006 RMK AO2 PWINO
2:55AM 55° 52° 55° 88
%
10
mi
1017.9
mb
None Calm 0.00"
KADU 280755Z AUTO 00000KT 10SM 13/11 A3006 RMK AO2 PWINO
2:35AM 55° 52° 55° 88
%
10
mi
1017.6
mb
None Calm 0.00"
KADU 280735Z AUTO 00000KT 10SM 13/11 A3005 RMK AO2 PWINO
2:15AM 55° 52° 55° 88
%
10
mi
1017.6
mb
None Calm 0.00"
KADU 280715Z AUTO 00000KT 10SM 13/11 A3005 RMK AO2 PWINO
Click here to show this page without METARs/TAFs included